createdAt,value
2022-08-17T00:00:12.806Z,21.71
2022-08-17T00:02:59.697Z,21.56
2022-08-17T00:05:29.175Z,21.41
2022-08-17T00:07:56.944Z,21.60
2022-08-17T00:10:25.176Z,21.76
2022-08-17T00:12:52.749Z,21.81
2022-08-17T00:15:21.615Z,21.81
2022-08-17T00:17:50.689Z,21.81
2022-08-17T00:20:18.973Z,22.07
2022-08-17T00:22:50.644Z,21.86
2022-08-17T00:25:20.003Z,21.64
2022-08-17T00:27:47.740Z,21.79
2022-08-17T00:33:23.146Z,21.66
2022-08-17T00:35:34.168Z,21.74
2022-08-17T00:38:01.673Z,21.61
2022-08-17T00:40:44.563Z,21.54
2022-08-17T00:43:19.800Z,21.63
2022-08-17T00:45:47.609Z,21.53
2022-08-17T00:48:29.330Z,21.82
2022-08-17T00:51:11.777Z,21.57
2022-08-17T00:53:41.946Z,21.57
2022-08-17T00:56:11.192Z,21.74
2022-08-17T00:58:38.595Z,21.63
2022-08-17T01:01:07.870Z,21.70
2022-08-17T01:03:36.028Z,21.76
2022-08-17T01:06:04.777Z,21.68
2022-08-17T01:08:33.827Z,21.59
2022-08-17T01:11:02.525Z,21.39
2022-08-17T01:13:40.774Z,21.39
2022-08-17T01:16:22.604Z,21.38
2022-08-17T01:18:54.279Z,21.59
2022-08-17T01:21:47.672Z,21.63
2022-08-17T01:24:15.811Z,21.54
2022-08-17T01:26:43.604Z,21.48
2022-08-17T01:29:11.540Z,21.42
2022-08-17T01:31:52.815Z,21.44
2022-08-17T01:34:20.756Z,21.74
2022-08-17T01:36:49.587Z,21.60
2022-08-17T01:39:37.253Z,21.53
2022-08-17T01:42:24.759Z,21.53
2022-08-17T01:44:58.967Z,21.37
2022-08-17T01:47:26.283Z,21.37
2022-08-17T01:49:53.805Z,21.36
2022-08-17T01:52:22.026Z,21.37
2022-08-17T01:54:51.491Z,21.34
2022-08-17T01:57:18.838Z,21.54
2022-08-17T01:59:46.125Z,21.61
2022-08-17T02:02:13.335Z,21.48
2022-08-17T02:04:58.773Z,21.42
2022-08-17T02:07:27.008Z,21.35
2022-08-17T02:09:56.333Z,21.32
2022-08-17T02:12:37.802Z,21.06
2022-08-17T02:15:10.226Z,21.11
2022-08-17T02:17:37.527Z,21.19
2022-08-17T02:20:05.384Z,21.25
2022-08-17T02:22:32.746Z,21.27
2022-08-17T02:25:02.336Z,21.24
2022-08-17T02:27:29.903Z,21.17
2022-08-17T02:29:57.572Z,20.93
2022-08-17T02:32:27.940Z,21.02
2022-08-17T02:34:57.464Z,20.96
2022-08-17T02:37:25.757Z,20.78
2022-08-17T02:39:53.223Z,20.79
2022-08-17T02:42:33.834Z,20.80
2022-08-17T02:45:02.333Z,20.83
2022-08-17T02:47:29.842Z,21.30
2022-08-17T02:49:57.449Z,21.21
2022-08-17T02:52:43.291Z,21.21
2022-08-17T02:55:19.022Z,20.92
2022-08-17T02:57:46.653Z,20.78
2022-08-17T03:00:21.281Z,21.01
2022-08-17T03:02:49.339Z,20.99
2022-08-17T03:05:18.951Z,20.96
2022-08-17T03:07:46.251Z,20.95
2022-08-17T03:10:14.561Z,21.02
2022-08-17T03:12:43.303Z,21.17
2022-08-17T03:15:14.020Z,21.18
2022-08-17T03:17:41.517Z,21.22
2022-08-17T03:20:09.334Z,21.31
2022-08-17T03:22:42.907Z,21.44
2022-08-17T03:25:24.104Z,21.18
2022-08-17T03:27:51.780Z,21.01
2022-08-17T03:30:19.157Z,21.37
2022-08-17T03:32:50.597Z,21.76
2022-08-17T03:35:20.939Z,21.73
2022-08-17T03:37:48.303Z,21.69
2022-08-17T03:40:41.811Z,21.75
2022-08-17T03:43:15.469Z,21.73
2022-08-17T03:46:01.913Z,21.73
2022-08-17T03:48:47.814Z,21.72
2022-08-17T03:51:40.860Z,21.70
2022-08-17T03:54:27.677Z,21.73
2022-08-17T03:57:06.357Z,21.48
2022-08-17T03:59:34.474Z,21.45
2022-08-17T04:02:08.995Z,21.72
2022-08-17T04:04:36.831Z,21.78
2022-08-17T04:07:04.762Z,21.75
2022-08-17T04:09:32.035Z,21.95
2022-08-17T04:12:01.215Z,21.81
2022-08-17T04:14:45.995Z,21.62
2022-08-17T04:17:24.719Z,21.45
2022-08-17T04:19:52.487Z,21.54
2022-08-17T04:22:33.379Z,21.51
2022-08-17T04:25:21.607Z,21.58
2022-08-17T04:27:48.929Z,21.64
2022-08-17T04:30:16.333Z,21.60
2022-08-17T04:33:05.849Z,21.63
2022-08-17T04:35:42.923Z,21.62
2022-08-17T04:38:16.229Z,21.32
2022-08-17T04:41:02.625Z,21.34
2022-08-17T04:43:32.020Z,21.31
2022-08-17T04:46:05.692Z,21.47
2022-08-17T04:48:45.785Z,21.54
2022-08-17T04:51:16.434Z,21.58
2022-08-17T04:53:46.587Z,21.35
2022-08-17T04:56:23.233Z,21.25
2022-08-17T04:58:52.377Z,21.36
2022-08-17T05:01:23.739Z,21.30
2022-08-17T05:04:18.392Z,21.47
2022-08-17T05:06:49.632Z,21.39
2022-08-17T05:09:17.867Z,21.25
2022-08-17T05:11:46.033Z,21.19
2022-08-17T05:14:14.509Z,21.52
2022-08-17T05:16:41.766Z,21.48
2022-08-17T05:19:09.028Z,21.67
2022-08-17T05:21:36.429Z,21.38
2022-08-17T05:24:06.023Z,21.26
2022-08-17T05:26:44.905Z,21.24
2022-08-17T05:29:12.450Z,21.18
2022-08-17T05:31:39.712Z,21.03
2022-08-17T05:34:07.390Z,20.78
2022-08-17T05:36:41.592Z,21.01
2022-08-17T05:39:15.974Z,21.07
2022-08-17T05:41:46.597Z,21.14
2022-08-17T05:44:14.070Z,21.03
2022-08-17T05:46:44.080Z,20.85
2022-08-17T05:49:12.276Z,21.06
2022-08-17T05:51:39.653Z,21.00
2022-08-17T05:54:19.141Z,21.01
2022-08-17T05:57:10.948Z,20.90
2022-08-17T05:59:52.089Z,20.89
2022-08-17T06:02:47.035Z,21.12
2022-08-17T06:05:25.881Z,21.28
2022-08-17T06:08:06.890Z,21.51
2022-08-17T06:10:34.080Z,21.67
2022-08-17T06:13:14.526Z,21.64
2022-08-17T06:15:41.798Z,21.99
2022-08-17T06:18:11.607Z,22.16
2022-08-17T06:21:13.797Z,21.87
2022-08-17T06:23:45.066Z,21.99
2022-08-17T06:26:20.613Z,21.85
2022-08-17T06:28:55.571Z,22.10
2022-08-17T06:31:28.036Z,22.26
2022-08-17T06:34:00.867Z,22.61
2022-08-17T06:36:40.471Z,22.66
2022-08-17T06:39:29.631Z,22.63
2022-08-17T06:42:54.882Z,22.61
2022-08-17T06:45:18.243Z,22.56
2022-08-17T06:48:00.860Z,22.34
2022-08-17T06:50:38.271Z,22.03
2022-08-17T06:53:11.170Z,21.98
2022-08-17T06:56:12.186Z,22.10
2022-08-17T06:58:40.967Z,22.32
2022-08-17T07:01:10.426Z,22.16
2022-08-17T07:03:41.731Z,21.88
2022-08-17T07:06:18.613Z,21.99
2022-08-17T07:08:59.003Z,22.04
2022-08-17T07:11:27.510Z,21.86
2022-08-17T07:14:06.137Z,22.22
2022-08-17T07:16:47.142Z,22.34
2022-08-17T07:19:17.301Z,22.03
2022-08-17T07:22:02.662Z,22.01
2022-08-17T07:24:39.256Z,22.25
2022-08-17T07:27:12.687Z,22.35
2022-08-17T07:30:06.770Z,22.45
2022-08-17T07:32:38.165Z,22.58
2022-08-17T07:35:16.493Z,22.60
2022-08-17T07:37:50.927Z,22.57
2022-08-17T07:40:31.266Z,22.38
2022-08-17T07:43:23.790Z,22.42
2022-08-17T07:46:15.937Z,22.32
2022-08-17T07:48:46.464Z,22.19
2022-08-17T07:51:26.411Z,22.12
2022-08-17T07:54:13.175Z,22.03
2022-08-17T07:56:56.585Z,22.00
2022-08-17T07:59:35.747Z,22.19
2022-08-17T08:02:31.087Z,21.49
2022-08-17T08:05:14.975Z,21.93
2022-08-17T08:08:01.425Z,22.22
2022-08-17T08:10:36.264Z,22.43
2022-08-17T08:13:23.191Z,22.44
2022-08-17T08:15:54.595Z,22.65
2022-08-17T08:18:54.368Z,22.33
2022-08-17T08:21:46.434Z,22.51
2022-08-17T08:24:34.794Z,22.58
2022-08-17T08:27:08.136Z,22.23
2022-08-17T08:30:00.948Z,22.49
2022-08-17T08:32:50.429Z,22.34
2022-08-17T08:35:37.246Z,22.58
2022-08-17T08:38:28.264Z,22.71
2022-08-17T08:41:17.810Z,22.67
2022-08-17T08:44:19.113Z,22.71
2022-08-17T08:47:35.571Z,22.76
2022-08-17T08:50:34.114Z,22.65
2022-08-17T08:53:39.686Z,22.66
2022-08-17T08:56:12.452Z,22.62
2022-08-17T08:58:52.600Z,22.78
2022-08-17T09:01:40.233Z,22.83
2022-08-17T09:04:25.404Z,22.78
2022-08-17T09:07:24.220Z,22.96
2022-08-17T09:10:11.127Z,22.97
2022-08-17T09:12:50.560Z,22.83
2022-08-17T09:15:22.628Z,22.72
2022-08-17T09:18:14.703Z,22.52
2022-08-17T09:20:50.319Z,22.36
2022-08-17T09:23:42.355Z,22.44
2022-08-17T09:26:14.554Z,22.72
2022-08-17T09:28:45.040Z,22.85
2022-08-17T09:31:18.157Z,22.73
2022-08-17T09:33:47.965Z,22.71
2022-08-17T09:36:25.747Z,22.66
2022-08-17T09:39:00.162Z,22.74
2022-08-17T09:41:48.878Z,22.92
2022-08-17T09:44:27.290Z,22.94
2022-08-17T09:46:59.968Z,23.01
2022-08-17T09:49:27.133Z,22.97
2022-08-17T09:51:58.883Z,22.98
2022-08-17T09:54:39.268Z,22.67
2022-08-17T09:57:29.946Z,22.99
2022-08-17T10:00:15.982Z,22.78
2022-08-17T10:03:16.142Z,22.64
2022-08-17T10:05:57.158Z,22.51
2022-08-17T10:08:32.376Z,22.46
2022-08-17T10:11:33.462Z,22.68
2022-08-17T10:14:36.869Z,22.33
2022-08-17T10:17:23.040Z,22.47
2022-08-17T10:19:50.305Z,22.64
2022-08-17T10:22:53.030Z,22.62
2022-08-17T10:25:53.941Z,22.78
2022-08-17T10:28:29.386Z,22.83
2022-08-17T10:31:30.763Z,22.82
2022-08-17T10:33:54.178Z,22.61
2022-08-17T10:36:55.052Z,22.81
2022-08-17T10:39:31.336Z,22.49
2022-08-17T10:42:04.357Z,22.37
2022-08-17T10:44:42.348Z,22.53
2022-08-17T10:47:14.513Z,22.60
2022-08-17T10:49:49.714Z,22.65
2022-08-17T10:52:20.083Z,22.76
2022-08-17T10:54:50.394Z,23.01
2022-08-17T10:57:31.680Z,23.02
2022-08-17T10:59:59.657Z,22.87
2022-08-17T11:02:31.483Z,22.97
2022-08-17T11:05:16.999Z,22.99
2022-08-17T11:08:05.330Z,23.19
2022-08-17T11:10:58.340Z,23.11
2022-08-17T11:13:31.412Z,23.20
2022-08-17T11:16:27.695Z,23.18
2022-08-17T11:19:26.396Z,23.18
2022-08-17T11:22:23.010Z,22.65
2022-08-17T11:24:52.677Z,22.73
2022-08-17T11:27:27.081Z,23.13
2022-08-17T11:30:20.655Z,23.52
2022-08-17T11:32:55.815Z,23.92
2022-08-17T11:35:24.387Z,24.15
2022-08-17T11:38:05.024Z,24.03
2022-08-17T11:40:46.416Z,24.21
2022-08-17T11:43:21.358Z,24.26
2022-08-17T11:45:56.081Z,24.62
2022-08-17T11:49:01.473Z,24.66
2022-08-17T11:51:58.369Z,24.66
2022-08-17T11:54:36.598Z,24.92
2022-08-17T11:57:25.967Z,24.88
2022-08-17T11:59:55.342Z,24.75
2022-08-17T12:02:31.702Z,24.57
2022-08-17T12:05:02.597Z,24.41
2022-08-17T12:07:32.665Z,24.16
2022-08-17T12:10:00.552Z,24.31
2022-08-17T12:12:33.019Z,24.49
2022-08-17T12:15:10.930Z,24.62
2022-08-17T12:17:52.057Z,24.81
2022-08-17T12:20:42.314Z,25.17
2022-08-17T12:23:11.063Z,24.82
2022-08-17T12:26:10.195Z,24.92
2022-08-17T12:28:39.279Z,25.13
2022-08-17T12:31:11.594Z,25.16
2022-08-17T12:33:44.138Z,25.16
2022-08-17T12:36:15.125Z,25.32
2022-08-17T12:38:51.229Z,25.08
2022-08-17T12:41:30.916Z,24.92
2022-08-17T12:44:03.872Z,25.14
2022-08-17T12:46:46.721Z,25.12
2022-08-17T12:49:15.265Z,25.41
2022-08-17T12:51:46.841Z,25.20
2022-08-17T12:54:28.529Z,24.87
2022-08-17T12:56:56.112Z,24.97
2022-08-17T12:59:30.451Z,24.70
2022-08-17T13:01:57.984Z,24.83
2022-08-17T13:04:26.587Z,24.75
2022-08-17T13:06:59.925Z,24.56
2022-08-17T13:09:36.029Z,24.35
2022-08-17T13:12:08.485Z,24.73
2022-08-17T13:14:36.350Z,24.34
2022-08-17T13:17:08.552Z,24.70
2022-08-17T13:19:48.507Z,24.89
2022-08-17T13:22:15.837Z,24.89
2022-08-17T13:24:55.060Z,25.10
2022-08-17T13:27:24.551Z,25.03
2022-08-17T13:29:58.004Z,25.24
2022-08-17T13:32:36.100Z,25.47
2022-08-17T13:35:32.386Z,25.61
2022-08-17T13:38:09.907Z,25.64
2022-08-17T13:40:41.652Z,25.55
2022-08-17T13:43:10.307Z,25.80
2022-08-17T13:45:45.469Z,25.81
2022-08-17T13:48:32.717Z,25.47
2022-08-17T13:51:00.007Z,25.45
2022-08-17T13:53:50.589Z,25.83
2022-08-17T13:56:38.746Z,25.74
2022-08-17T13:59:16.947Z,25.74
2022-08-17T14:02:05.724Z,25.85
2022-08-17T14:04:33.956Z,26.14
2022-08-17T14:07:11.500Z,26.22
2022-08-17T14:09:47.953Z,26.59
2022-08-17T14:12:17.682Z,26.59
2022-08-17T14:14:45.267Z,26.80
2022-08-17T14:17:12.798Z,26.95
2022-08-17T14:19:40.085Z,26.86
2022-08-17T14:22:11.597Z,26.49
2022-08-17T14:24:45.013Z,26.48
2022-08-17T14:27:12.549Z,26.46
2022-08-17T14:29:41.227Z,27.10
2022-08-17T14:32:17.984Z,27.29
2022-08-17T14:34:46.161Z,27.17
2022-08-17T14:37:13.529Z,27.29
2022-08-17T14:39:41.007Z,26.83
2022-08-17T14:42:09.432Z,26.38
2022-08-17T14:44:38.241Z,26.57
2022-08-17T14:47:07.301Z,26.72
2022-08-17T14:49:34.508Z,27.03
2022-08-17T14:52:02.167Z,26.49
2022-08-17T14:54:34.069Z,26.46
2022-08-17T14:57:25.154Z,26.10
2022-08-17T14:59:54.942Z,25.69
2022-08-17T15:02:30.074Z,25.61
2022-08-17T15:05:00.092Z,25.67
2022-08-17T15:07:30.743Z,25.63
2022-08-17T15:10:02.083Z,25.42
2022-08-17T15:12:33.775Z,25.16
2022-08-17T15:15:04.813Z,25.01
2022-08-17T15:17:44.429Z,25.33
2022-08-17T15:20:19.271Z,25.53
2022-08-17T15:22:49.842Z,25.25
2022-08-17T15:25:19.184Z,25.49
2022-08-17T15:27:47.422Z,25.43
2022-08-17T15:30:15.752Z,25.50
2022-08-17T15:32:46.875Z,25.41
2022-08-17T15:35:29.447Z,25.53
2022-08-17T15:38:06.159Z,25.81
2022-08-17T15:40:37.846Z,26.06
2022-08-17T15:43:11.465Z,26.00
2022-08-17T15:45:39.723Z,25.75
2022-08-17T15:48:07.385Z,25.84
2022-08-17T15:50:35.430Z,25.90
2022-08-17T15:53:04.762Z,25.72
2022-08-17T15:55:33.398Z,25.77
2022-08-17T15:58:01.113Z,26.12
2022-08-17T16:00:29.332Z,26.29
2022-08-17T16:03:46.107Z,26.10
2022-08-17T16:05:47.277Z,26.42
2022-08-17T16:08:20.110Z,26.52
2022-08-17T16:10:49.563Z,26.86
2022-08-17T16:13:18.282Z,26.94
2022-08-17T16:15:54.816Z,27.33
2022-08-17T16:18:27.404Z,26.98
2022-08-17T16:20:55.030Z,26.84
2022-08-17T16:23:22.420Z,26.58
2022-08-17T16:25:53.945Z,26.71
2022-08-17T16:28:25.734Z,27.17
2022-08-17T16:31:07.924Z,26.41
2022-08-17T16:33:37.446Z,26.08
2022-08-17T16:36:07.215Z,26.10
2022-08-17T16:38:35.825Z,26.28
2022-08-17T16:41:04.816Z,26.80
2022-08-17T16:43:34.022Z,27.16
2022-08-17T16:46:01.571Z,27.22
2022-08-17T16:48:29.736Z,26.96
2022-08-17T16:51:04.220Z,27.01
2022-08-17T16:53:31.904Z,26.74
2022-08-17T16:55:59.109Z,26.69
2022-08-17T16:58:26.504Z,26.95
2022-08-17T17:00:54.365Z,26.99
2022-08-17T17:03:25.278Z,26.58
2022-08-17T17:06:32.381Z,26.78
2022-08-17T17:09:03.710Z,26.82
2022-08-17T17:11:47.186Z,26.86
2022-08-17T17:14:18.216Z,26.55
2022-08-17T17:16:53.025Z,26.43
2022-08-17T17:19:35.325Z,26.52
2022-08-17T17:22:14.080Z,26.19
2022-08-17T17:25:03.212Z,25.72
2022-08-17T17:27:38.348Z,25.55
2022-08-17T17:30:15.735Z,25.34
2022-08-17T17:32:52.749Z,25.06
2022-08-17T17:35:25.243Z,24.97
2022-08-17T17:37:53.287Z,24.90
2022-08-17T17:40:37.639Z,24.69
2022-08-17T17:43:36.887Z,24.87
2022-08-17T17:46:27.062Z,25.14
2022-08-17T17:48:55.324Z,24.91
2022-08-17T17:52:15.630Z,24.87
2022-08-17T17:54:58.899Z,24.59
2022-08-17T17:58:04.305Z,24.59
2022-08-17T18:00:44.343Z,24.67
2022-08-17T18:03:23.114Z,24.58
2022-08-17T18:06:00.661Z,24.65
2022-08-17T18:08:34.752Z,24.80
2022-08-17T18:11:11.448Z,24.32
2022-08-17T18:14:14.431Z,24.27
2022-08-17T18:16:42.964Z,24.51
2022-08-17T18:19:15.494Z,24.56
2022-08-17T18:21:46.456Z,24.76
2022-08-17T18:24:13.903Z,24.70
2022-08-17T18:26:44.680Z,24.61
2022-08-17T18:29:26.265Z,24.85
2022-08-17T18:32:15.231Z,24.91
2022-08-17T18:34:47.701Z,24.61
2022-08-17T18:37:34.329Z,24.60
2022-08-17T18:40:32.435Z,24.65
2022-08-17T18:43:24.569Z,24.57
2022-08-17T18:45:55.157Z,24.26
2022-08-17T18:48:24.897Z,24.46
2022-08-17T18:50:54.457Z,24.31
2022-08-17T18:53:33.139Z,24.12
2022-08-17T18:56:21.955Z,24.07
2022-08-17T18:59:12.448Z,24.06
2022-08-17T19:02:03.205Z,23.97
2022-08-17T19:04:41.697Z,23.89
2022-08-17T19:07:29.116Z,23.99
2022-08-17T19:10:13.838Z,23.92
2022-08-17T19:12:49.396Z,24.00
2022-08-17T19:15:22.888Z,23.91
2022-08-17T19:18:00.366Z,23.96
2022-08-17T19:20:34.928Z,23.69
2022-08-17T19:23:10.972Z,23.46
2022-08-17T19:25:43.338Z,23.26
2022-08-17T19:28:26.008Z,23.46
2022-08-17T19:31:07.705Z,23.71
2022-08-17T19:33:35.034Z,23.83
2022-08-17T19:36:24.194Z,24.01
2022-08-17T19:39:10.433Z,24.00
2022-08-17T19:42:03.816Z,24.00
2022-08-17T19:44:56.666Z,23.92
2022-08-17T19:47:57.057Z,23.76
2022-08-17T19:50:38.393Z,23.76
2022-08-17T19:54:01.645Z,23.64
2022-08-17T19:56:31.682Z,23.59
2022-08-17T19:59:04.704Z,23.59
2022-08-17T20:01:39.945Z,23.57
2022-08-17T20:04:32.630Z,23.39
2022-08-17T20:07:04.633Z,23.45
2022-08-17T20:09:37.790Z,23.49
2022-08-17T20:12:09.855Z,23.35
2022-08-17T20:14:53.620Z,23.27
2022-08-17T20:17:40.663Z,23.35
2022-08-17T20:20:46.771Z,23.33
2022-08-17T20:23:23.384Z,23.55
2022-08-17T20:26:05.176Z,23.71
2022-08-17T20:28:38.911Z,23.79
2022-08-17T20:31:41.817Z,23.79
2022-08-17T20:34:34.899Z,23.61
2022-08-17T20:37:10.517Z,23.61
2022-08-17T20:39:45.088Z,23.43
2022-08-17T20:42:15.388Z,23.56
2022-08-17T20:44:43.193Z,23.60
2022-08-17T20:47:17.926Z,23.55
2022-08-17T20:49:47.967Z,23.54
2022-08-17T20:52:18.621Z,23.49
2022-08-17T20:54:54.687Z,22.98
2022-08-17T20:57:37.462Z,22.33
2022-08-17T21:00:39.742Z,22.34
2022-08-17T21:03:26.638Z,22.19
2022-08-17T21:06:17.622Z,22.27
2022-08-17T21:08:53.926Z,22.60
2022-08-17T21:11:57.211Z,22.54
2022-08-17T21:14:40.241Z,22.74
2022-08-17T21:17:56.253Z,22.89
2022-08-17T21:20:27.713Z,22.81
2022-08-17T21:23:12.238Z,22.71
2022-08-17T21:26:04.805Z,22.58
2022-08-17T21:28:59.973Z,22.42
2022-08-17T21:31:32.065Z,22.54
2022-08-17T21:34:25.416Z,22.61
2022-08-17T21:36:52.957Z,22.60
2022-08-17T21:39:30.507Z,22.58
2022-08-17T21:42:00.519Z,22.52
2022-08-17T21:44:34.915Z,22.42
2022-08-17T21:47:32.267Z,22.23
2022-08-17T21:50:23.580Z,22.41
2022-08-17T21:52:54.071Z,22.42
2022-08-17T21:55:30.189Z,22.21
2022-08-17T21:58:13.871Z,22.39
2022-08-17T22:00:44.457Z,22.56
2022-08-17T22:03:24.726Z,22.18
2022-08-17T22:05:52.044Z,21.96
2022-08-17T22:08:24.024Z,21.77
2022-08-17T22:11:00.608Z,21.50
2022-08-17T22:13:29.580Z,21.50
2022-08-17T22:16:15.390Z,21.60
2022-08-17T22:18:57.899Z,21.51
2022-08-17T22:21:25.490Z,21.55
2022-08-17T22:24:05.331Z,21.38
2022-08-17T22:27:00.163Z,21.55
2022-08-17T22:29:57.030Z,21.40
2022-08-17T22:32:37.281Z,21.58
2022-08-17T22:35:29.054Z,21.37
2022-08-17T22:37:57.496Z,21.35
2022-08-17T22:40:32.959Z,21.57
2022-08-17T22:43:03.493Z,21.77
2022-08-17T22:45:31.198Z,21.81
2022-08-17T22:48:00.294Z,21.74
2022-08-17T22:50:30.320Z,21.70
2022-08-17T22:53:19.203Z,21.69
2022-08-17T22:56:15.299Z,21.36
2022-08-17T22:59:15.823Z,21.38
2022-08-17T23:01:45.400Z,21.50
2022-08-17T23:04:31.826Z,21.70
2022-08-17T23:06:59.071Z,21.79
2022-08-17T23:09:26.419Z,21.92
2022-08-17T23:11:58.992Z,21.64
2022-08-17T23:14:31.732Z,21.49
2022-08-17T23:17:02.010Z,21.68
2022-08-17T23:19:31.840Z,21.74
2022-08-17T23:21:59.848Z,21.40
2022-08-17T23:24:33.074Z,21.55
2022-08-17T23:27:00.357Z,21.66
2022-08-17T23:29:29.384Z,21.59
2022-08-17T23:31:59.706Z,21.54
2022-08-17T23:34:28.029Z,21.47
2022-08-17T23:36:55.544Z,21.64
2022-08-17T23:39:27.272Z,21.63
2022-08-17T23:41:57.891Z,21.51
2022-08-17T23:44:25.848Z,21.38
2022-08-17T23:46:53.605Z,21.42
2022-08-17T23:49:20.886Z,21.58
2022-08-17T23:51:48.570Z,21.75
2022-08-17T23:54:35.629Z,21.49
2022-08-17T23:57:04.769Z,21.41
2022-08-17T23:59:33.890Z,21.45
